Cromford, United Kingdom
Current Conditions -  °F | °C
As of 8:50 AM on Friday 28 Nov 2014 (Local Time) from EGNX Reporting Station
Haze Haze  
Wind Chill: 44°   Ceiling: 200
Heat Index: 48°   Visibility: 0.75mi
Dew Point: 48°   Wind: 10mph
Humidity: 100%   Direction: 60°ENE
Pressure: 29.65"   Gusts: NA
Location:  53.11°N, 1.56°W
Report Text: EGNX 280850Z 06009KT 1200 R09/P1500 BR BKN002 OVC003 09/09 Q1004
Loading
Personal Weather Stations






























Interactive Weather Map New forecast layout! Learn more

10-Day Weather Forecast

Advertisements
Track Severe Weather on mobile